Dekalb, IL

3:40 PM CST on February 01, 2015 (GMT -0600)
Rochelle | Change Station
CLOSE
Current Station
Airport
Location: Rochelle,
Elevation: 781 ft
Nearby Weather Stations

Elev 781 ft 41.89 °N, 89.08 °W | Updated 25 minutes ago

Snow
Snow
22 °F
Feels Like 4 °F
N
31
Wind Variable Wind from NE
Gusts 37 mph

Today
High -- | Low -- °F
--% Chance of Precip.
Yesterday
High -- | Low -- °F
Precip. -- in
7:07 AM 5:09 PM
Waxing Gibbous, 96% visible
Pressure 29.76 in
Visibility 0.2 miles
Clouds Overcast 1100 ft
Windchill 4 °F
Dew Point 20 °F
Humidity 93%
Rainfall 0.00 in
Snow Depth Not available.
UV 0 out of 12
Pollen .10 out of 12
Air Quality Not available.
Flu Activity Not available.
METAR KRPJ 012115Z AUTO 04027G32KT 1/4SM SN OVC011 M06/M07 A2976 RMK AO2 T10561066

More Conditions Fewer Conditions

Pressure 29.76 in
Visibility 0.2 miles
Clouds Overcast 1100 ft
Windchill 4 °F
Dew Point 20 °F
Humidity 93%
Rainfall 0.00 in
Snow Depth Not available.
UV 0 out of 12
Pollen .10 out of 12
Air Quality Not available.
Flu Activity Not available.
METAR KRPJ 012115Z AUTO 04027G32KT 1/4SM SN OVC011 M06/M07 A2976 RMK AO2 T10561066

More Conditions Fewer Conditions

10-Day Weather Forecast

Almanac

Astronomy

Feb. 01, 2015 Rise Set
Actual Time
Civil Twilight
Nautical Twilight
Astronomical Twilight
Moon
Length of Visible Light
Length of Day
Tomorrow will be .
, % of the Moon is Illuminated

Today's Extremes

State Highs State Lows

Community

WunderPhotos

Upload Photos

1,792,555 photos uploaded!

WunderBlogs® & News

Nearby

Air Quality

  Air Quality AQ Index Pollutant
Not available.

Snow Depth

Station Depth Elevation

Earthquake Activity

City Distance Mag. Time & Date
Minimum magnitude displayed is 2.5.

Coastal Water Temperatures

Place Temperature

Nearby Weather Stations